sensor_id;sensor_type;location;lat;lon;timestamp;P1;durP1;ratioP1;P2;durP2;ratioP2
19183;SDS011;9724;51.194;6.856;2022-07-15T00:00:09;3.63;;;1.90;;
19183;SDS011;9724;51.194;6.856;2022-07-15T00:02:37;7.33;;;2.30;;
19183;SDS011;9724;51.194;6.856;2022-07-15T00:05:06;4.77;;;2.00;;
19183;SDS011;9724;51.194;6.856;2022-07-15T00:07:34;6.63;;;1.80;;
19183;SDS011;9724;51.194;6.856;2022-07-15T00:10:02;4.60;;;2.00;;
19183;SDS011;9724;51.194;6.856;2022-07-15T00:12:45;8.47;;;2.17;;
19183;SDS011;9724;51.194;6.856;2022-07-15T00:15:16;7.30;;;2.10;;
19183;SDS011;9724;51.194;6.856;2022-07-15T00:17:44;6.07;;;2.20;;
19183;SDS011;9724;51.194;6.856;2022-07-15T00:20:12;7.67;;;2.10;;
19183;SDS011;9724;51.194;6.856;2022-07-15T00:22:41;3.17;;;1.93;;
19183;SDS011;9724;51.194;6.856;2022-07-15T00:25:10;6.63;;;2.20;;
19183;SDS011;9724;51.194;6.856;2022-07-15T00:27:49;4.37;;;2.13;;
19183;SDS011;9724;51.194;6.856;2022-07-15T00:30:20;4.77;;;1.93;;
19183;SDS011;9724;51.194;6.856;2022-07-15T00:32:49;4.37;;;2.00;;
19183;SDS011;9724;51.194;6.856;2022-07-15T00:35:16;6.17;;;2.07;;
19183;SDS011;9724;51.194;6.856;2022-07-15T00:37:44;10.93;;;3.13;;
19183;SDS011;9724;51.194;6.856;2022-07-15T00:40:12;5.43;;;2.00;;
19183;SDS011;9724;51.194;6.856;2022-07-15T00:42:40;10.93;;;2.67;;
19183;SDS011;9724;51.194;6.856;2022-07-15T00:45:11;7.60;;;2.07;;
19183;SDS011;9724;51.194;6.856;2022-07-15T00:47:41;7.40;;;2.20;;
19183;SDS011;9724;51.194;6.856;2022-07-15T00:50:10;3.87;;;1.90;;
19183;SDS011;9724;51.194;6.856;2022-07-15T00:52:41;6.30;;;2.30;;
19183;SDS011;9724;51.194;6.856;2022-07-15T00:55:12;5.80;;;2.37;;
19183;SDS011;9724;51.194;6.856;2022-07-15T00:57:40;5.60;;;2.00;;
19183;SDS011;9724;51.194;6.856;2022-07-15T01:00:10;4.80;;;2.20;;
19183;SDS011;9724;51.194;6.856;2022-07-15T01:02:40;2.83;;;1.90;;
19183;SDS011;9724;51.194;6.856;2022-07-15T01:05:16;10.30;;;2.83;;
19183;SDS011;9724;51.194;6.856;2022-07-15T01:07:44;6.90;;;2.27;;
19183;SDS011;9724;51.194;6.856;2022-07-15T01:10:12;7.23;;;2.30;;
19183;SDS011;9724;51.194;6.856;2022-07-15T01:12:41;9.57;;;2.27;;
19183;SDS011;9724;51.194;6.856;2022-07-15T01:15:09;7.87;;;2.40;;
19183;SDS011;9724;51.194;6.856;2022-07-15T01:17:37;8.87;;;2.30;;
19183;SDS011;9724;51.194;6.856;2022-07-15T01:20:07;4.13;;;2.00;;
19183;SDS011;9724;51.194;6.856;2022-07-15T01:22:37;12.30;;;2.37;;
19183;SDS011;9724;51.194;6.856;2022-07-15T01:25:05;9.97;;;2.50;;
19183;SDS011;9724;51.194;6.856;2022-07-15T01:27:33;5.00;;;2.37;;
19183;SDS011;9724;51.194;6.856;2022-07-15T01:30:01;9.37;;;2.43;;
19183;SDS011;9724;51.194;6.856;2022-07-15T01:32:29;9.63;;;2.53;;
19183;SDS011;9724;51.194;6.856;2022-07-15T01:34:57;4.57;;;2.10;;
19183;SDS011;9724;51.194;6.856;2022-07-15T01:37:24;9.33;;;2.30;;
19183;SDS011;9724;51.194;6.856;2022-07-15T01:39:54;7.57;;;2.40;;
19183;SDS011;9724;51.194;6.856;2022-07-15T01:42:21;8.80;;;2.30;;
19183;SDS011;9724;51.194;6.856;2022-07-15T01:44:49;4.67;;;2.07;;
19183;SDS011;9724;51.194;6.856;2022-07-15T01:47:17;2.33;;;1.80;;
19183;SDS011;9724;51.194;6.856;2022-07-15T01:49:44;9.60;;;2.33;;
19183;SDS011;9724;51.194;6.856;2022-07-15T01:52:11;9.60;;;2.00;;
19183;SDS011;9724;51.194;6.856;2022-07-15T01:54:39;13.03;;;2.60;;
19183;SDS011;9724;51.194;6.856;2022-07-15T01:57:08;3.53;;;2.00;;
19183;SDS011;9724;51.194;6.856;2022-07-15T01:59:36;4.03;;;2.13;;
19183;SDS011;9724;51.194;6.856;2022-07-15T02:02:04;4.70;;;2.20;;
19183;SDS011;9724;51.194;6.856;2022-07-15T02:04:31;10.00;;;2.70;;
19183;SDS011;9724;51.194;6.856;2022-07-15T02:06:59;8.57;;;2.70;;
19183;SDS011;9724;51.194;6.856;2022-07-15T02:09:27;9.50;;;2.40;;
19183;SDS011;9724;51.194;6.856;2022-07-15T02:11:55;6.23;;;2.00;;
19183;SDS011;9724;51.194;6.856;2022-07-15T02:14:24;8.70;;;2.50;;
19183;SDS011;9724;51.194;6.856;2022-07-15T02:16:51;7.87;;;2.20;;
19183;SDS011;9724;51.194;6.856;2022-07-15T02:19:19;2.97;;;1.73;;
19183;SDS011;9724;51.194;6.856;2022-07-15T02:21:47;4.27;;;2.00;;
19183;SDS011;9724;51.194;6.856;2022-07-15T02:24:14;6.57;;;2.13;;
19183;SDS011;9724;51.194;6.856;2022-07-15T02:26:45;4.90;;;2.40;;
19183;SDS011;9724;51.194;6.856;2022-07-15T02:29:13;7.73;;;2.30;;
19183;SDS011;9724;51.194;6.856;2022-07-15T02:31:42;6.67;;;1.90;;
19183;SDS011;9724;51.194;6.856;2022-07-15T02:34:10;4.13;;;2.07;;
19183;SDS011;9724;51.194;6.856;2022-07-15T02:36:37;8.50;;;2.27;;
19183;SDS011;9724;51.194;6.856;2022-07-15T02:39:05;4.97;;;1.63;;
19183;SDS011;9724;51.194;6.856;2022-07-15T02:41:33;8.97;;;2.27;;
19183;SDS011;9724;51.194;6.856;2022-07-15T02:44:02;7.67;;;1.80;;
19183;SDS011;9724;51.194;6.856;2022-07-15T02:46:30;9.70;;;2.10;;
19183;SDS011;9724;51.194;6.856;2022-07-15T02:48:59;7.93;;;1.80;;
19183;SDS011;9724;51.194;6.856;2022-07-15T02:51:27;8.60;;;2.30;;
19183;SDS011;9724;51.194;6.856;2022-07-15T02:53:55;7.67;;;2.50;;
19183;SDS011;9724;51.194;6.856;2022-07-15T02:56:22;9.27;;;2.00;;
19183;SDS011;9724;51.194;6.856;2022-07-15T02:58:50;11.80;;;2.03;;
19183;SDS011;9724;51.194;6.856;2022-07-15T03:01:17;9.70;;;1.97;;
19183;SDS011;9724;51.194;6.856;2022-07-15T03:03:46;8.43;;;2.27;;
19183;SDS011;9724;51.194;6.856;2022-07-15T03:06:15;7.87;;;2.30;;
19183;SDS011;9724;51.194;6.856;2022-07-15T03:08:43;9.07;;;2.17;;
19183;SDS011;9724;51.194;6.856;2022-07-15T03:11:13;9.67;;;2.37;;
19183;SDS011;9724;51.194;6.856;2022-07-15T03:13:41;10.97;;;2.40;;
19183;SDS011;9724;51.194;6.856;2022-07-15T03:16:09;8.80;;;2.10;;
19183;SDS011;9724;51.194;6.856;2022-07-15T03:18:36;16.60;;;2.87;;
19183;SDS011;9724;51.194;6.856;2022-07-15T03:21:05;11.73;;;2.27;;
19183;SDS011;9724;51.194;6.856;2022-07-15T03:23:34;6.27;;;2.20;;
19183;SDS011;9724;51.194;6.856;2022-07-15T03:26:01;7.60;;;2.13;;
19183;SDS011;9724;51.194;6.856;2022-07-15T03:28:29;10.20;;;2.23;;
19183;SDS011;9724;51.194;6.856;2022-07-15T03:30:57;9.03;;;2.37;;
19183;SDS011;9724;51.194;6.856;2022-07-15T03:33:24;10.30;;;2.37;;
19183;SDS011;9724;51.194;6.856;2022-07-15T03:35:52;7.77;;;2.07;;
19183;SDS011;9724;51.194;6.856;2022-07-15T03:38:20;5.83;;;2.10;;
19183;SDS011;9724;51.194;6.856;2022-07-15T03:40:49;9.40;;;2.20;;
19183;SDS011;9724;51.194;6.856;2022-07-15T03:43:16;7.13;;;2.30;;
19183;SDS011;9724;51.194;6.856;2022-07-15T03:45:44;9.50;;;2.50;;
19183;SDS011;9724;51.194;6.856;2022-07-15T03:48:12;8.20;;;2.37;;
19183;SDS011;9724;51.194;6.856;2022-07-15T03:50:39;8.60;;;2.33;;
19183;SDS011;9724;51.194;6.856;2022-07-15T03:53:07;4.40;;;1.93;;
19183;SDS011;9724;51.194;6.856;2022-07-15T03:55:35;7.00;;;2.47;;
19183;SDS011;9724;51.194;6.856;2022-07-15T03:58:06;9.80;;;2.77;;
19183;SDS011;9724;51.194;6.856;2022-07-15T04:00:33;4.90;;;1.97;;
19183;SDS011;9724;51.194;6.856;2022-07-15T04:03:01;4.90;;;2.03;;
19183;SDS011;9724;51.194;6.856;2022-07-15T04:05:29;4.83;;;2.00;;
19183;SDS011;9724;51.194;6.856;2022-07-15T04:07:56;8.03;;;2.30;;
19183;SDS011;9724;51.194;6.856;2022-07-15T04:10:24;8.00;;;2.30;;
19183;SDS011;9724;51.194;6.856;2022-07-15T04:12:52;11.07;;;2.40;;
19183;SDS011;9724;51.194;6.856;2022-07-15T04:15:21;14.57;;;2.47;;
19183;SDS011;9724;51.194;6.856;2022-07-15T04:17:48;6.40;;;2.40;;
19183;SDS011;9724;51.194;6.856;2022-07-15T04:20:16;12.47;;;2.57;;
19183;SDS011;9724;51.194;6.856;2022-07-15T04:22:44;6.50;;;2.50;;
19183;SDS011;9724;51.194;6.856;2022-07-15T04:25:14;6.43;;;2.57;;
19183;SDS011;9724;51.194;6.856;2022-07-15T04:27:43;6.27;;;2.90;;
19183;SDS011;9724;51.194;6.856;2022-07-15T04:30:11;10.17;;;2.57;;
19183;SDS011;9724;51.194;6.856;2022-07-15T04:32:41;11.07;;;2.93;;
19183;SDS011;9724;51.194;6.856;2022-07-15T04:35:09;8.27;;;3.00;;
19183;SDS011;9724;51.194;6.856;2022-07-15T04:37:36;7.77;;;3.00;;
19183;SDS011;9724;51.194;6.856;2022-07-15T04:40:04;14.60;;;3.33;;
19183;SDS011;9724;51.194;6.856;2022-07-15T04:42:33;9.07;;;3.20;;
19183;SDS011;9724;51.194;6.856;2022-07-15T04:45:01;9.30;;;2.90;;
19183;SDS011;9724;51.194;6.856;2022-07-15T04:47:28;10.40;;;3.00;;
19183;SDS011;9724;51.194;6.856;2022-07-15T04:49:57;10.63;;;3.33;;
19183;SDS011;9724;51.194;6.856;2022-07-15T04:52:43;9.83;;;3.33;;
19183;SDS011;9724;51.194;6.856;2022-07-15T04:55:11;7.50;;;2.80;;
19183;SDS011;9724;51.194;6.856;2022-07-15T04:57:39;11.73;;;3.43;;
19183;SDS011;9724;51.194;6.856;2022-07-15T05:00:08;10.20;;;3.10;;
19183;SDS011;9724;51.194;6.856;2022-07-15T05:02:37;8.60;;;2.90;;
19183;SDS011;9724;51.194;6.856;2022-07-15T05:05:06;12.20;;;3.00;;
19183;SDS011;9724;51.194;6.856;2022-07-15T05:07:34;14.47;;;3.60;;
19183;SDS011;9724;51.194;6.856;2022-07-15T05:10:03;8.73;;;3.23;;
19183;SDS011;9724;51.194;6.856;2022-07-15T05:12:31;9.40;;;2.70;;
19183;SDS011;9724;51.194;6.856;2022-07-15T05:15:00;10.30;;;2.67;;
19183;SDS011;9724;51.194;6.856;2022-07-15T05:17:28;7.37;;;2.30;;
19183;SDS011;9724;51.194;6.856;2022-07-15T05:19:55;10.30;;;2.30;;
19183;SDS011;9724;51.194;6.856;2022-07-15T05:22:25;7.30;;;2.30;;
19183;SDS011;9724;51.194;6.856;2022-07-15T05:24:52;2.37;;;1.90;;
19183;SDS011;9724;51.194;6.856;2022-07-15T05:27:21;9.70;;;2.33;;
19183;SDS011;9724;51.194;6.856;2022-07-15T05:29:48;10.37;;;2.43;;
19183;SDS011;9724;51.194;6.856;2022-07-15T05:32:16;12.97;;;2.10;;
19183;SDS011;9724;51.194;6.856;2022-07-15T05:34:44;7.10;;;1.80;;
19183;SDS011;9724;51.194;6.856;2022-07-15T05:37:12;8.97;;;1.93;;
19183;SDS011;9724;51.194;6.856;2022-07-15T05:39:41;7.63;;;2.07;;
19183;SDS011;9724;51.194;6.856;2022-07-15T05:42:19;9.87;;;1.93;;
19183;SDS011;9724;51.194;6.856;2022-07-15T05:44:47;7.40;;;2.13;;
19183;SDS011;9724;51.194;6.856;2022-07-15T05:47:15;8.93;;;2.30;;
19183;SDS011;9724;51.194;6.856;2022-07-15T05:49:42;9.63;;;2.10;;
19183;SDS011;9724;51.194;6.856;2022-07-15T05:52:10;6.60;;;1.90;;
19183;SDS011;9724;51.194;6.856;2022-07-15T05:54:38;9.97;;;2.30;;
19183;SDS011;9724;51.194;6.856;2022-07-15T05:57:07;4.10;;;1.67;;
19183;SDS011;9724;51.194;6.856;2022-07-15T05:59:34;9.27;;;2.17;;
19183;SDS011;9724;51.194;6.856;2022-07-15T06:02:02;6.13;;;2.10;;
19183;SDS011;9724;51.194;6.856;2022-07-15T06:04:30;12.63;;;3.00;;
19183;SDS011;9724;51.194;6.856;2022-07-15T06:06:58;9.93;;;2.43;;
19183;SDS011;9724;51.194;6.856;2022-07-15T06:09:26;9.80;;;2.10;;
19183;SDS011;9724;51.194;6.856;2022-07-15T06:11:54;15.93;;;2.37;;
19183;SDS011;9724;51.194;6.856;2022-07-15T06:14:23;6.60;;;1.90;;
19183;SDS011;9724;51.194;6.856;2022-07-15T06:16:51;10.00;;;1.63;;
19183;SDS011;9724;51.194;6.856;2022-07-15T06:19:18;9.30;;;2.33;;
19183;SDS011;9724;51.194;6.856;2022-07-15T06:21:46;5.07;;;1.70;;
19183;SDS011;9724;51.194;6.856;2022-07-15T06:24:14;6.40;;;1.83;;
19183;SDS011;9724;51.194;6.856;2022-07-15T06:26:42;8.90;;;1.50;;
19183;SDS011;9724;51.194;6.856;2022-07-15T06:29:10;7.10;;;1.80;;
19183;SDS011;9724;51.194;6.856;2022-07-15T06:31:39;10.40;;;1.73;;
19183;SDS011;9724;51.194;6.856;2022-07-15T06:34:07;6.13;;;1.63;;
19183;SDS011;9724;51.194;6.856;2022-07-15T06:36:34;6.17;;;1.30;;
19183;SDS011;9724;51.194;6.856;2022-07-15T06:39:02;8.33;;;1.50;;
19183;SDS011;9724;51.194;6.856;2022-07-15T06:41:30;5.37;;;1.57;;
19183;SDS011;9724;51.194;6.856;2022-07-15T06:43:58;4.77;;;1.70;;
19183;SDS011;9724;51.194;6.856;2022-07-15T06:46:27;7.27;;;1.63;;
19183;SDS011;9724;51.194;6.856;2022-07-15T06:48:56;7.53;;;1.70;;
19183;SDS011;9724;51.194;6.856;2022-07-15T06:51:24;4.87;;;1.40;;
19183;SDS011;9724;51.194;6.856;2022-07-15T06:53:52;5.57;;;1.37;;
19183;SDS011;9724;51.194;6.856;2022-07-15T06:56:19;3.73;;;1.30;;
19183;SDS011;9724;51.194;6.856;2022-07-15T06:58:47;8.10;;;1.27;;
19183;SDS011;9724;51.194;6.856;2022-07-15T07:01:15;6.63;;;1.53;;
19183;SDS011;9724;51.194;6.856;2022-07-15T07:03:43;6.87;;;1.53;;
19183;SDS011;9724;51.194;6.856;2022-07-15T07:06:27;4.60;;;1.47;;
19183;SDS011;9724;51.194;6.856;2022-07-15T07:08:55;8.50;;;1.40;;
19183;SDS011;9724;51.194;6.856;2022-07-15T07:11:23;4.77;;;1.27;;
19183;SDS011;9724;51.194;6.856;2022-07-15T07:13:50;7.47;;;1.67;;
19183;SDS011;9724;51.194;6.856;2022-07-15T07:16:18;8.13;;;1.47;;
19183;SDS011;9724;51.194;6.856;2022-07-15T07:18:46;6.23;;;1.83;;
19183;SDS011;9724;51.194;6.856;2022-07-15T07:21:17;8.10;;;1.50;;
19183;SDS011;9724;51.194;6.856;2022-07-15T07:23:48;6.23;;;1.77;;
19183;SDS011;9724;51.194;6.856;2022-07-15T07:26:16;3.87;;;1.17;;
19183;SDS011;9724;51.194;6.856;2022-07-15T07:28:44;5.17;;;1.67;;
19183;SDS011;9724;51.194;6.856;2022-07-15T07:31:13;5.33;;;1.20;;
19183;SDS011;9724;51.194;6.856;2022-07-15T07:33:41;4.90;;;1.40;;
19183;SDS011;9724;51.194;6.856;2022-07-15T07:36:09;2.53;;;1.37;;
19183;SDS011;9724;51.194;6.856;2022-07-15T07:38:37;3.77;;;1.30;;
19183;SDS011;9724;51.194;6.856;2022-07-15T07:41:08;6.43;;;1.60;;
19183;SDS011;9724;51.194;6.856;2022-07-15T07:43:36;5.97;;;1.67;;
19183;SDS011;9724;51.194;6.856;2022-07-15T07:46:03;8.43;;;1.83;;
19183;SDS011;9724;51.194;6.856;2022-07-15T07:48:32;5.83;;;1.60;;
19183;SDS011;9724;51.194;6.856;2022-07-15T07:50:59;5.13;;;1.60;;
19183;SDS011;9724;51.194;6.856;2022-07-15T07:53:27;7.47;;;1.67;;
19183;SDS011;9724;51.194;6.856;2022-07-15T07:55:55;5.73;;;1.53;;
19183;SDS011;9724;51.194;6.856;2022-07-15T07:58:24;5.23;;;1.80;;
19183;SDS011;9724;51.194;6.856;2022-07-15T08:00:52;8.00;;;1.80;;
19183;SDS011;9724;51.194;6.856;2022-07-15T08:03:22;7.47;;;2.40;;
19183;SDS011;9724;51.194;6.856;2022-07-15T08:05:50;5.90;;;2.20;;
19183;SDS011;9724;51.194;6.856;2022-07-15T08:08:19;6.63;;;2.23;;
19183;SDS011;9724;51.194;6.856;2022-07-15T08:10:50;10.90;;;2.23;;
19183;SDS011;9724;51.194;6.856;2022-07-15T08:13:24;6.57;;;2.40;;
19183;SDS011;9724;51.194;6.856;2022-07-15T08:15:54;9.67;;;2.30;;
19183;SDS011;9724;51.194;6.856;2022-07-15T08:18:28;6.33;;;2.40;;
19183;SDS011;9724;51.194;6.856;2022-07-15T08:20:56;5.10;;;2.40;;
19183;SDS011;9724;51.194;6.856;2022-07-15T08:23:24;14.97;;;2.77;;
19183;SDS011;9724;51.194;6.856;2022-07-15T08:25:52;11.40;;;3.17;;
19183;SDS011;9724;51.194;6.856;2022-07-15T08:28:20;10.43;;;2.90;;
19183;SDS011;9724;51.194;6.856;2022-07-15T08:31:09;7.07;;;3.07;;
19183;SDS011;9724;51.194;6.856;2022-07-15T08:33:37;6.37;;;2.80;;
19183;SDS011;9724;51.194;6.856;2022-07-15T08:36:05;8.37;;;2.80;;
19183;SDS011;9724;51.194;6.856;2022-07-15T08:38:32;9.33;;;2.80;;
19183;SDS011;9724;51.194;6.856;2022-07-15T08:41:00;5.13;;;2.10;;
19183;SDS011;9724;51.194;6.856;2022-07-15T08:43:28;7.73;;;2.20;;
19183;SDS011;9724;51.194;6.856;2022-07-15T08:45:56;9.90;;;2.90;;
19183;SDS011;9724;51.194;6.856;2022-07-15T08:48:31;9.70;;;2.37;;
19183;SDS011;9724;51.194;6.856;2022-07-15T08:51:03;6.30;;;2.60;;
19183;SDS011;9724;51.194;6.856;2022-07-15T08:53:32;5.37;;;2.43;;
19183;SDS011;9724;51.194;6.856;2022-07-15T08:56:00;12.23;;;2.50;;
19183;SDS011;9724;51.194;6.856;2022-07-15T08:58:28;7.93;;;2.30;;
19183;SDS011;9724;51.194;6.856;2022-07-15T09:01:16;6.63;;;2.50;;
19183;SDS011;9724;51.194;6.856;2022-07-15T09:03:46;8.20;;;2.50;;
19183;SDS011;9724;51.194;6.856;2022-07-15T09:06:29;7.00;;;2.07;;
19183;SDS011;9724;51.194;6.856;2022-07-15T09:08:58;8.97;;;2.50;;
19183;SDS011;9724;51.194;6.856;2022-07-15T09:11:29;7.33;;;1.90;;
19183;SDS011;9724;51.194;6.856;2022-07-15T09:13:58;8.47;;;2.57;;
19183;SDS011;9724;51.194;6.856;2022-07-15T09:16:27;17.83;;;2.43;;
19183;SDS011;9724;51.194;6.856;2022-07-15T09:18:56;6.47;;;1.90;;
19183;SDS011;9724;51.194;6.856;2022-07-15T09:21:24;5.53;;;2.00;;
19183;SDS011;9724;51.194;6.856;2022-07-15T09:23:54;4.07;;;1.70;;
19183;SDS011;9724;51.194;6.856;2022-07-15T09:26:29;6.83;;;1.80;;
19183;SDS011;9724;51.194;6.856;2022-07-15T09:28:59;5.27;;;1.60;;
19183;SDS011;9724;51.194;6.856;2022-07-15T09:31:30;8.60;;;1.70;;
19183;SDS011;9724;51.194;6.856;2022-07-15T09:34:17;5.67;;;1.47;;
19183;SDS011;9724;51.194;6.856;2022-07-15T09:36:46;3.27;;;1.20;;
19183;SDS011;9724;51.194;6.856;2022-07-15T09:39:17;3.03;;;1.70;;
19183;SDS011;9724;51.194;6.856;2022-07-15T09:41:46;5.20;;;1.40;;
19183;SDS011;9724;51.194;6.856;2022-07-15T09:44:15;3.43;;;1.33;;
19183;SDS011;9724;51.194;6.856;2022-07-15T09:46:45;5.30;;;1.47;;
19183;SDS011;9724;51.194;6.856;2022-07-15T09:49:15;2.20;;;1.40;;
19183;SDS011;9724;51.194;6.856;2022-07-15T09:51:47;6.03;;;1.27;;
19183;SDS011;9724;51.194;6.856;2022-07-15T09:54:16;4.90;;;1.60;;
19183;SDS011;9724;51.194;6.856;2022-07-15T09:56:45;3.53;;;1.23;;
19183;SDS011;9724;51.194;6.856;2022-07-15T09:59:13;3.90;;;1.00;;
19183;SDS011;9724;51.194;6.856;2022-07-15T10:01:42;2.67;;;0.80;;
19183;SDS011;9724;51.194;6.856;2022-07-15T10:04:14;3.13;;;1.20;;
19183;SDS011;9724;51.194;6.856;2022-07-15T10:06:42;3.40;;;1.37;;
19183;SDS011;9724;51.194;6.856;2022-07-15T10:09:33;3.70;;;1.10;;
19183;SDS011;9724;51.194;6.856;2022-07-15T10:12:03;3.77;;;1.17;;
19183;SDS011;9724;51.194;6.856;2022-07-15T10:14:37;8.80;;;1.10;;
19183;SDS011;9724;51.194;6.856;2022-07-15T10:20:23;3.87;;;1.20;;
19183;SDS011;9724;51.194;6.856;2022-07-15T10:23:01;4.57;;;1.17;;
19183;SDS011;9724;51.194;6.856;2022-07-15T10:25:40;3.53;;;1.10;;
19183;SDS011;9724;51.194;6.856;2022-07-15T10:28:15;2.00;;;0.90;;
19183;SDS011;9724;51.194;6.856;2022-07-15T10:30:47;4.00;;;1.00;;
19183;SDS011;9724;51.194;6.856;2022-07-15T10:33:43;3.20;;;0.70;;
19183;SDS011;9724;51.194;6.856;2022-07-15T10:36:54;2.87;;;1.10;;
19183;SDS011;9724;51.194;6.856;2022-07-15T10:39:24;1.90;;;0.93;;
19183;SDS011;9724;51.194;6.856;2022-07-15T10:41:55;2.83;;;1.20;;
19183;SDS011;9724;51.194;6.856;2022-07-15T10:44:25;4.77;;;1.20;;
19183;SDS011;9724;51.194;6.856;2022-07-15T10:49:44;1.23;;;1.00;;
19183;SDS011;9724;51.194;6.856;2022-07-15T10:52:14;3.10;;;1.10;;
19183;SDS011;9724;51.194;6.856;2022-07-15T10:54:44;3.53;;;1.00;;
19183;SDS011;9724;51.194;6.856;2022-07-15T10:57:15;1.53;;;1.00;;
19183;SDS011;9724;51.194;6.856;2022-07-15T10:59:55;5.60;;;1.27;;
19183;SDS011;9724;51.194;6.856;2022-07-15T11:02:24;3.60;;;1.17;;
19183;SDS011;9724;51.194;6.856;2022-07-15T11:04:52;2.90;;;1.20;;
19183;SDS011;9724;51.194;6.856;2022-07-15T11:07:47;4.20;;;1.30;;
19183;SDS011;9724;51.194;6.856;2022-07-15T11:10:16;2.97;;;1.17;;
19183;SDS011;9724;51.194;6.856;2022-07-15T11:12:56;4.87;;;1.10;;
19183;SDS011;9724;51.194;6.856;2022-07-15T11:15:26;5.73;;;0.97;;
19183;SDS011;9724;51.194;6.856;2022-07-15T11:17:55;3.17;;;1.00;;
19183;SDS011;9724;51.194;6.856;2022-07-15T11:20:31;7.17;;;1.30;;
19183;SDS011;9724;51.194;6.856;2022-07-15T11:23:01;4.57;;;1.30;;
19183;SDS011;9724;51.194;6.856;2022-07-15T11:25:30;1.80;;;0.90;;
19183;SDS011;9724;51.194;6.856;2022-07-15T11:28:01;5.40;;;1.03;;
19183;SDS011;9724;51.194;6.856;2022-07-15T11:30:32;2.63;;;1.20;;
19183;SDS011;9724;51.194;6.856;2022-07-15T11:33:05;3.00;;;1.30;;
19183;SDS011;9724;51.194;6.856;2022-07-15T11:35:47;2.30;;;1.00;;
19183;SDS011;9724;51.194;6.856;2022-07-15T11:38:17;7.87;;;1.37;;
19183;SDS011;9724;51.194;6.856;2022-07-15T11:40:50;3.63;;;1.20;;
19183;SDS011;9724;51.194;6.856;2022-07-15T11:43:37;3.43;;;1.10;;
19183;SDS011;9724;51.194;6.856;2022-07-15T11:46:23;2.87;;;1.10;;
19183;SDS011;9724;51.194;6.856;2022-07-15T11:48:51;2.50;;;1.20;;
19183;SDS011;9724;51.194;6.856;2022-07-15T11:51:23;5.27;;;1.37;;
19183;SDS011;9724;51.194;6.856;2022-07-15T11:53:52;4.23;;;1.47;;
19183;SDS011;9724;51.194;6.856;2022-07-15T11:56:20;3.23;;;1.20;;
19183;SDS011;9724;51.194;6.856;2022-07-15T11:58:51;1.60;;;1.30;;
19183;SDS011;9724;51.194;6.856;2022-07-15T12:01:22;4.30;;;1.00;;
19183;SDS011;9724;51.194;6.856;2022-07-15T12:03:51;3.00;;;1.13;;
19183;SDS011;9724;51.194;6.856;2022-07-15T12:06:21;7.47;;;1.57;;
19183;SDS011;9724;51.194;6.856;2022-07-15T12:08:50;7.13;;;1.30;;
19183;SDS011;9724;51.194;6.856;2022-07-15T12:11:20;4.43;;;1.27;;
19183;SDS011;9724;51.194;6.856;2022-07-15T12:13:52;3.17;;;1.23;;
19183;SDS011;9724;51.194;6.856;2022-07-15T12:16:23;5.40;;;1.47;;
19183;SDS011;9724;51.194;6.856;2022-07-15T12:18:54;5.83;;;1.30;;
19183;SDS011;9724;51.194;6.856;2022-07-15T12:21:22;5.30;;;1.27;;
19183;SDS011;9724;51.194;6.856;2022-07-15T12:24:01;4.00;;;1.40;;
19183;SDS011;9724;51.194;6.856;2022-07-15T12:26:31;1.87;;;1.10;;
19183;SDS011;9724;51.194;6.856;2022-07-15T12:29:01;3.57;;;1.03;;
19183;SDS011;9724;51.194;6.856;2022-07-15T12:31:30;4.87;;;1.20;;
19183;SDS011;9724;51.194;6.856;2022-07-15T12:34:00;7.57;;;1.57;;
19183;SDS011;9724;51.194;6.856;2022-07-15T12:36:29;3.60;;;1.10;;
19183;SDS011;9724;51.194;6.856;2022-07-15T12:39:09;1.63;;;0.90;;
19183;SDS011;9724;51.194;6.856;2022-07-15T12:41:56;2.00;;;1.23;;
19183;SDS011;9724;51.194;6.856;2022-07-15T12:44:27;4.50;;;1.10;;
19183;SDS011;9724;51.194;6.856;2022-07-15T12:46:57;7.20;;;1.30;;
19183;SDS011;9724;51.194;6.856;2022-07-15T12:49:38;6.37;;;1.10;;
19183;SDS011;9724;51.194;6.856;2022-07-15T12:52:17;2.77;;;1.17;;
19183;SDS011;9724;51.194;6.856;2022-07-15T12:54:48;2.87;;;1.20;;
19183;SDS011;9724;51.194;6.856;2022-07-15T12:57:25;2.63;;;1.20;;
19183;SDS011;9724;51.194;6.856;2022-07-15T12:59:59;3.60;;;1.20;;
19183;SDS011;9724;51.194;6.856;2022-07-15T13:02:28;3.87;;;1.00;;
19183;SDS011;9724;51.194;6.856;2022-07-15T13:04:56;3.90;;;1.30;;
19183;SDS011;9724;51.194;6.856;2022-07-15T13:07:24;2.23;;;1.27;;
19183;SDS011;9724;51.194;6.856;2022-07-15T13:09:51;3.83;;;1.13;;
19183;SDS011;9724;51.194;6.856;2022-07-15T13:12:19;3.37;;;0.90;;
19183;SDS011;9724;51.194;6.856;2022-07-15T13:14:47;7.67;;;1.37;;
19183;SDS011;9724;51.194;6.856;2022-07-15T13:17:16;3.53;;;1.00;;
19183;SDS011;9724;51.194;6.856;2022-07-15T13:19:44;4.47;;;1.00;;
19183;SDS011;9724;51.194;6.856;2022-07-15T13:22:12;4.07;;;0.90;;
19183;SDS011;9724;51.194;6.856;2022-07-15T13:24:39;5.73;;;1.20;;
19183;SDS011;9724;51.194;6.856;2022-07-15T13:27:07;7.27;;;1.20;;
19183;SDS011;9724;51.194;6.856;2022-07-15T13:29:35;2.23;;;1.10;;
19183;SDS011;9724;51.194;6.856;2022-07-15T13:32:03;3.13;;;1.10;;
19183;SDS011;9724;51.194;6.856;2022-07-15T13:34:32;3.97;;;1.17;;
19183;SDS011;9724;51.194;6.856;2022-07-15T13:37:00;2.93;;;1.00;;
19183;SDS011;9724;51.194;6.856;2022-07-15T13:39:28;1.90;;;1.03;;
19183;SDS011;9724;51.194;6.856;2022-07-15T13:41:56;3.57;;;0.93;;
19183;SDS011;9724;51.194;6.856;2022-07-15T13:44:24;5.53;;;1.20;;
19183;SDS011;9724;51.194;6.856;2022-07-15T13:46:51;6.50;;;1.60;;
19183;SDS011;9724;51.194;6.856;2022-07-15T13:49:19;5.50;;;1.30;;
19183;SDS011;9724;51.194;6.856;2022-07-15T13:52:09;3.07;;;1.20;;
19183;SDS011;9724;51.194;6.856;2022-07-15T13:54:36;2.03;;;1.30;;
19183;SDS011;9724;51.194;6.856;2022-07-15T13:57:03;1.80;;;1.00;;
19183;SDS011;9724;51.194;6.856;2022-07-15T13:59:31;1.20;;;1.10;;
19183;SDS011;9724;51.194;6.856;2022-07-15T14:01:59;2.00;;;1.20;;
19183;SDS011;9724;51.194;6.856;2022-07-15T14:04:29;2.77;;;1.17;;
19183;SDS011;9724;51.194;6.856;2022-07-15T14:06:57;3.83;;;1.30;;
19183;SDS011;9724;51.194;6.856;2022-07-15T14:09:26;4.43;;;1.03;;
19183;SDS011;9724;51.194;6.856;2022-07-15T14:11:54;4.10;;;1.00;;
19183;SDS011;9724;51.194;6.856;2022-07-15T14:14:22;3.00;;;0.97;;
19183;SDS011;9724;51.194;6.856;2022-07-15T14:16:51;2.37;;;1.03;;
19183;SDS011;9724;51.194;6.856;2022-07-15T14:19:19;4.27;;;1.00;;
19183;SDS011;9724;51.194;6.856;2022-07-15T14:21:47;3.33;;;1.10;;
19183;SDS011;9724;51.194;6.856;2022-07-15T14:24:19;8.10;;;0.93;;
19183;SDS011;9724;51.194;6.856;2022-07-15T14:26:48;2.97;;;1.00;;
19183;SDS011;9724;51.194;6.856;2022-07-15T14:29:16;4.80;;;1.20;;
19183;SDS011;9724;51.194;6.856;2022-07-15T14:31:44;4.97;;;1.27;;
19183;SDS011;9724;51.194;6.856;2022-07-15T14:34:12;2.67;;;1.03;;
19183;SDS011;9724;51.194;6.856;2022-07-15T14:36:40;1.33;;;1.13;;
19183;SDS011;9724;51.194;6.856;2022-07-15T14:39:08;5.87;;;1.20;;
19183;SDS011;9724;51.194;6.856;2022-07-15T14:41:36;3.00;;;0.87;;
19183;SDS011;9724;51.194;6.856;2022-07-15T14:44:06;1.80;;;0.90;;
19183;SDS011;9724;51.194;6.856;2022-07-15T14:46:34;2.80;;;1.10;;
19183;SDS011;9724;51.194;6.856;2022-07-15T14:49:02;1.17;;;0.90;;
19183;SDS011;9724;51.194;6.856;2022-07-15T14:51:30;2.30;;;1.00;;
19183;SDS011;9724;51.194;6.856;2022-07-15T14:53:58;4.90;;;0.90;;
19183;SDS011;9724;51.194;6.856;2022-07-15T14:56:26;2.13;;;1.00;;
19183;SDS011;9724;51.194;6.856;2022-07-15T14:58:54;3.27;;;1.30;;
19183;SDS011;9724;51.194;6.856;2022-07-15T15:01:23;1.87;;;0.90;;
19183;SDS011;9724;51.194;6.856;2022-07-15T15:03:51;4.57;;;1.20;;
19183;SDS011;9724;51.194;6.856;2022-07-15T15:06:18;5.30;;;1.20;;
19183;SDS011;9724;51.194;6.856;2022-07-15T15:08:48;2.93;;;0.90;;
19183;SDS011;9724;51.194;6.856;2022-07-15T15:11:15;3.93;;;1.13;;
19183;SDS011;9724;51.194;6.856;2022-07-15T15:13:43;3.10;;;0.90;;
19183;SDS011;9724;51.194;6.856;2022-07-15T15:16:11;2.20;;;0.90;;
19183;SDS011;9724;51.194;6.856;2022-07-15T15:18:41;0.93;;;0.93;;
19183;SDS011;9724;51.194;6.856;2022-07-15T15:21:09;1.90;;;0.80;;